Time;durP1;ratioP1;P1;durP2;ratioP2;P2;SDS_P1;SDS_P2;PMS_P1;PMS_P2;Temp;Humidity;BMP_temperature;BMP_pressure;BME280_temperature;BME280_humidity;BME280_pressure;Samples;Min_cycle;Max_cycle;Signal;HPM_P1;HPM_P2
2021/05/29 00:00:29;;;;;;;32.80;18.35;;;;;;;;;;5081524;22;20529;-61
2021/05/29 00:03:15;;;;;;;36.33;20.02;;;;;;;;;;5032602;28;20053;-61
2021/05/29 00:06:01;;;;;;;37.28;18.63;;;;;;;;;;5032673;28;20053;-61
2021/05/29 00:08:46;;;;;;;33.92;19.35;;;;;;;;;;5047694;28;20064;-60
2021/05/29 00:11:31;;;;;;;42.00;20.95;;;;;;;;;;5052354;28;20052;-62
2021/05/29 00:14:17;;;;;;;39.10;21.00;;;;;;;;;;5052587;28;20084;-61
2021/05/29 00:17:02;;;;;;;49.40;22.83;;;;;;;;;;5052357;28;20049;-61
2021/05/29 00:19:48;;;;;;;47.58;22.33;;;;;;;;;;5051913;28;20041;-60
2021/05/29 00:22:33;;;;;;;48.05;22.45;;;;;;;;;;5052625;28;20388;-60
2021/05/29 00:25:18;;;;;;;39.63;19.02;;;;;;;;;;5052261;28;20053;-60
2021/05/29 00:28:04;;;;;;;29.50;16.77;;;;;;;;;;5052133;28;20041;-61
2021/05/29 00:30:49;;;;;;;30.35;16.00;;;;;;;;;;5050836;28;20048;-62
2021/05/29 00:33:34;;;;;;;35.50;19.02;;;;;;;;;;5052576;28;20048;-62
2021/05/29 00:36:20;;;;;;;44.63;21.05;;;;;;;;;;5052134;28;20044;-61
2021/05/29 00:39:08;;;;;;;39.20;20.38;;;;;;;;;;5052235;28;20049;-61
2021/05/29 00:41:53;;;;;;;57.35;27.90;;;;;;;;;;5052112;28;20045;-61
2021/05/29 00:44:55;;;;;;;44.67;22.23;;;;;;;;;;5051992;28;20052;-61
2021/05/29 00:47:40;;;;;;;36.67;18.98;;;;;;;;;;5052132;28;20052;-61
2021/05/29 00:50:25;;;;;;;49.72;22.42;;;;;;;;;;5051653;28;20056;-61
2021/05/29 00:53:11;;;;;;;50.90;26.10;;;;;;;;;;5052008;28;20132;-61
2021/05/29 00:55:57;;;;;;;62.03;29.27;;;;;;;;;;5052018;28;20051;-61
2021/05/29 00:58:42;;;;;;;40.92;19.67;;;;;;;;;;5051929;28;20056;-61
2021/05/29 01:01:29;;;;;;;30.25;17.80;;;;;;;;;;5051541;28;20045;-61
2021/05/29 01:04:15;;;;;;;29.92;17.58;;;;;;;;;;5051919;28;20060;-61
2021/05/29 01:07:00;;;;;;;34.38;17.20;;;;;;;;;;5051744;28;20518;-60
2021/05/29 01:09:46;;;;;;;35.28;17.58;;;;;;;;;;5050363;28;20048;-61
2021/05/29 01:12:31;;;;;;;30.80;17.80;;;;;;;;;;5051916;28;20132;-61
2021/05/29 01:15:18;;;;;;;34.53;18.48;;;;;;;;;;5051722;28;20056;-60
2021/05/29 01:18:06;;;;;;;28.05;17.45;;;;;;;;;;5051651;28;20682;-60
2021/05/29 01:20:52;;;;;;;29.67;17.10;;;;;;;;;;5051491;28;20045;-61
2021/05/29 01:23:37;;;;;;;29.10;17.83;;;;;;;;;;5051746;28;20045;-61
2021/05/29 01:26:23;;;;;;;31.75;18.38;;;;;;;;;;5051602;28;20076;-61
2021/05/29 01:29:08;;;;;;;30.55;17.27;;;;;;;;;;5051550;28;20503;-61
2021/05/29 01:32:01;;;;;;;46.28;21.30;;;;;;;;;;5050619;28;20122;-61
2021/05/29 01:34:47;;;;;;;48.17;22.60;;;;;;;;;;5051601;28;20136;-62
2021/05/29 01:37:34;;;;;;;41.08;20.13;;;;;;;;;;5050766;28;20127;-62
2021/05/29 01:40:19;;;;;;;44.45;22.50;;;;;;;;;;5051549;28;20049;-62
2021/05/29 01:43:04;;;;;;;43.08;22.65;;;;;;;;;;5054289;28;20052;-62
2021/05/29 01:45:50;;;;;;;54.65;25.65;;;;;;;;;;5055551;28;20053;-61
2021/05/29 01:48:38;;;;;;;53.45;27.85;;;;;;;;;;5054023;28;20052;-61
2021/05/29 01:51:24;;;;;;;49.92;25.55;;;;;;;;;;5055004;28;20051;-64
2021/05/29 01:54:09;;;;;;;58.03;26.73;;;;;;;;;;5055486;28;20132;-64
2021/05/29 01:56:57;;;;;;;41.58;23.65;;;;;;;;;;5055158;28;20049;-63
2021/05/29 01:59:42;;;;;;;44.95;24.10;;;;;;;;;;5054707;28;20539;-64
2021/05/29 02:02:27;;;;;;;37.38;22.27;;;;;;;;;;5055136;28;20045;-63
2021/05/29 02:05:23;;;;;;;45.08;24.17;;;;;;;;;;5054880;28;20498;-63
2021/05/29 02:08:09;;;;;;;53.63;25.92;;;;;;;;;;5054682;28;20491;-63
2021/05/29 02:10:58;;;;;;;46.03;24.48;;;;;;;;;;5054428;28;20411;-63
2021/05/29 02:13:43;;;;;;;36.10;22.48;;;;;;;;;;5054800;28;20055;-63
2021/05/29 02:16:28;;;;;;;59.53;27.17;;;;;;;;;;5054488;28;20049;-63
2021/05/29 02:19:14;;;;;;;65.65;27.52;;;;;;;;;;5054713;28;20541;-63
2021/05/29 02:21:59;;;;;;;57.53;26.77;;;;;;;;;;5053986;28;20059;-64
2021/05/29 02:24:44;;;;;;;54.53;26.17;;;;;;;;;;5055065;28;20045;-64
2021/05/29 02:27:30;;;;;;;76.97;30.98;;;;;;;;;;5054854;28;20105;-63
2021/05/29 02:30:16;;;;;;;76.28;29.05;;;;;;;;;;5054202;28;20067;-63
2021/05/29 02:33:01;;;;;;;71.35;29.58;;;;;;;;;;5053501;28;20072;-63
2021/05/29 02:35:47;;;;;;;62.97;26.98;;;;;;;;;;5053447;28;20513;-62
2021/05/29 02:38:35;;;;;;;65.10;28.00;;;;;;;;;;5054393;28;20167;-63
2021/05/29 02:41:21;;;;;;;67.00;27.63;;;;;;;;;;5053958;28;20041;-63
2021/05/29 02:44:06;;;;;;;50.00;23.67;;;;;;;;;;5054215;28;20044;-63
2021/05/29 02:46:52;;;;;;;39.47;18.58;;;;;;;;;;5054095;28;20053;-63
2021/05/29 02:49:37;;;;;;;58.15;25.88;;;;;;;;;;5053708;28;20045;-62
2021/05/29 02:52:23;;;;;;;61.92;27.13;;;;;;;;;;5053883;28;20060;-62
2021/05/29 02:55:11;;;;;;;49.70;24.23;;;;;;;;;;5054193;28;20047;-63
2021/05/29 02:57:57;;;;;;;54.17;25.92;;;;;;;;;;5053755;28;20570;-63
2021/05/29 03:00:43;;;;;;;35.35;20.88;;;;;;;;;;5053417;28;20037;-63
2021/05/29 03:03:29;;;;;;;45.47;23.17;;;;;;;;;;5053913;28;20048;-62
2021/05/29 03:06:15;;;;;;;34.42;18.90;;;;;;;;;;5032385;28;20049;-63
2021/05/29 03:09:00;;;;;;;32.33;18.67;;;;;;;;;;5032577;28;20478;-63
2021/05/29 03:11:46;;;;;;;39.28;20.73;;;;;;;;;;5033753;28;20057;-62
2021/05/29 03:14:31;;;;;;;84.75;31.98;;;;;;;;;;5033682;28;20060;-62
2021/05/29 03:17:17;;;;;;;57.78;25.50;;;;;;;;;;5032549;28;20094;-63
2021/05/29 03:20:03;;;;;;;63.15;28.05;;;;;;;;;;5033357;28;20049;-63
2021/05/29 03:22:48;;;;;;;73.93;31.23;;;;;;;;;;5033562;28;20142;-62
2021/05/29 03:25:34;;;;;;;73.22;30.13;;;;;;;;;;5033736;28;20056;-63
2021/05/29 03:28:19;;;;;;;64.72;27.23;;;;;;;;;;5033471;28;20076;-63
2021/05/29 03:31:05;;;;;;;51.53;25.77;;;;;;;;;;5032075;28;20052;-63
2021/05/29 03:33:50;;;;;;;60.95;29.50;;;;;;;;;;5033543;28;20076;-63
2021/05/29 03:36:35;;;;;;;79.72;30.48;;;;;;;;;;5033330;28;20072;-63
2021/05/29 03:39:22;;;;;;;65.90;30.20;;;;;;;;;;5033050;28;20052;-63
2021/05/29 03:42:07;;;;;;;78.15;32.35;;;;;;;;;;5033505;28;20056;-64
2021/05/29 03:44:53;;;;;;;76.65;31.48;;;;;;;;;;5033319;28;20419;-63
2021/05/29 03:47:38;;;;;;;75.53;32.13;;;;;;;;;;5033329;28;20426;-64
2021/05/29 03:50:25;;;;;;;86.07;36.17;;;;;;;;;;5031725;28;20048;-64
2021/05/29 03:53:10;;;;;;;82.15;35.13;;;;;;;;;;5033307;28;20512;-64
2021/05/29 03:55:55;;;;;;;87.13;35.35;;;;;;;;;;5032863;28;20046;-64
2021/05/29 03:58:41;;;;;;;84.13;33.63;;;;;;;;;;5032542;28;20561;-62
2021/05/29 04:01:26;;;;;;;72.13;31.73;;;;;;;;;;5032742;28;20103;-62
2021/05/29 04:04:11;;;;;;;65.78;30.83;;;;;;;;;;5032431;28;20095;-63
2021/05/29 04:06:59;;;;;;;74.63;31.70;;;;;;;;;;5032776;28;20446;-64
2021/05/29 04:09:44;;;;;;;61.45;30.40;;;;;;;;;;5032476;28;20060;-62
2021/05/29 04:12:31;;;;;;;63.55;31.25;;;;;;;;;;5032691;28;20053;-63
2021/05/29 04:15:17;;;;;;;63.55;30.17;;;;;;;;;;5032631;28;20056;-63
2021/05/29 04:18:02;;;;;;;57.47;30.00;;;;;;;;;;5032560;28;20131;-62
2021/05/29 04:20:48;;;;;;;54.72;28.95;;;;;;;;;;5032335;28;20045;-63
2021/05/29 04:23:33;;;;;;;64.25;30.40;;;;;;;;;;5031382;28;20061;-62
2021/05/29 04:26:18;;;;;;;60.13;29.20;;;;;;;;;;5032348;28;20049;-63
2021/05/29 04:29:03;;;;;;;54.90;28.65;;;;;;;;;;5032301;28;20048;-63
2021/05/29 04:31:49;;;;;;;56.47;27.95;;;;;;;;;;5032169;28;20052;-65
2021/05/29 04:34:34;;;;;;;50.38;26.27;;;;;;;;;;5032674;28;20049;-64
2021/05/29 04:37:20;;;;;;;50.47;27.60;;;;;;;;;;5032278;28;20054;-63
2021/05/29 04:40:08;;;;;;;44.80;25.83;;;;;;;;;;5031874;28;20053;-63
2021/05/29 04:42:54;;;;;;;51.53;27.25;;;;;;;;;;5032162;28;20447;-63
2021/05/29 04:45:41;;;;;;;47.13;25.50;;;;;;;;;;5032137;28;20043;-64
2021/05/29 04:48:26;;;;;;;46.13;25.67;;;;;;;;;;5032079;28;20053;-62
2021/05/29 04:51:12;;;;;;;45.20;26.90;;;;;;;;;;5032047;28;20450;-63
2021/05/29 04:53:57;;;;;;;40.13;24.05;;;;;;;;;;5032106;28;20120;-64
2021/05/29 04:56:43;;;;;;;40.08;24.95;;;;;;;;;;5031912;28;20088;-63
2021/05/29 04:59:28;;;;;;;38.65;24.15;;;;;;;;;;5031583;28;20048;-64
2021/05/29 05:02:13;;;;;;;41.55;25.17;;;;;;;;;;5037113;28;20119;-63
2021/05/29 05:04:59;;;;;;;34.72;23.88;;;;;;;;;;5039822;28;20048;-64
2021/05/29 05:07:45;;;;;;;40.65;24.77;;;;;;;;;;5042043;28;20045;-63
2021/05/29 05:10:30;;;;;;;41.53;25.23;;;;;;;;;;5042200;28;20041;-63
2021/05/29 05:13:15;;;;;;;43.13;26.42;;;;;;;;;;5039636;28;20051;-63
2021/05/29 05:16:01;;;;;;;36.40;22.92;;;;;;;;;;5044036;28;20505;-64
2021/05/29 05:18:46;;;;;;;39.10;24.48;;;;;;;;;;5051917;28;20048;-63
2021/05/29 05:21:31;;;;;;;46.25;26.15;;;;;;;;;;5055464;28;20048;-63
2021/05/29 05:24:17;;;;;;;41.95;25.65;;;;;;;;;;5056035;28;20045;-64
2021/05/29 05:27:02;;;;;;;30.50;22.08;;;;;;;;;;5055973;28;20091;-63
2021/05/29 05:29:48;;;;;;;35.25;24.08;;;;;;;;;;5055258;28;20045;-63
2021/05/29 05:32:34;;;;;;;35.85;24.13;;;;;;;;;;5054444;28;20045;-64
2021/05/29 05:35:21;;;;;;;33.13;22.60;;;;;;;;;;5055757;28;20069;-62
2021/05/29 05:38:07;;;;;;;28.35;20.80;;;;;;;;;;5055395;28;20045;-63
2021/05/29 05:40:52;;;;;;;29.23;21.15;;;;;;;;;;5055634;28;20057;-63
2021/05/29 05:43:38;;;;;;;26.88;20.65;;;;;;;;;;5055434;28;20142;-62
2021/05/29 05:46:23;;;;;;;33.30;21.92;;;;;;;;;;5055029;28;20052;-63
2021/05/29 05:49:08;;;;;;;30.83;22.15;;;;;;;;;;5055204;28;20052;-63
2021/05/29 05:51:54;;;;;;;29.80;21.98;;;;;;;;;;5060585;28;20041;-64
2021/05/29 05:54:39;;;;;;;31.25;21.88;;;;;;;;;;5059533;28;20090;-64
2021/05/29 05:57:25;;;;;;;34.17;21.45;;;;;;;;;;5059256;28;20052;-63
2021/05/29 06:00:12;;;;;;;31.55;22.63;;;;;;;;;;5095256;22;20049;-64
2021/05/29 06:02:57;;;;;;;30.40;21.70;;;;;;;;;;5054959;28;20235;-64
2021/05/29 06:05:43;;;;;;;31.88;23.23;;;;;;;;;;5054877;28;20511;-65
2021/05/29 06:08:29;;;;;;;32.05;22.85;;;;;;;;;;5055140;28;20049;-65
2021/05/29 06:11:14;;;;;;;28.77;20.35;;;;;;;;;;5054488;28;20053;-64
2021/05/29 06:19:52;;;;;;;26.58;20.98;;;;;;;;;;5054364;28;20162;-65
2021/05/29 06:22:39;;;;;;;26.60;19.80;;;;;;;;;;5054807;28;20047;-65
2021/05/29 06:25:25;;;;;;;27.55;20.02;;;;;;;;;;5054625;28;20052;-65
2021/05/29 06:28:10;;;;;;;26.90;19.48;;;;;;;;;;5053906;28;20183;-64
2021/05/29 06:30:56;;;;;;;20.42;16.67;;;;;;;;;;5053350;28;20072;-65
2021/05/29 06:33:41;;;;;;;28.25;19.83;;;;;;;;;;5054679;28;20055;-65
2021/05/29 06:36:26;;;;;;;21.52;17.95;;;;;;;;;;5056935;28;20387;-65
2021/05/29 06:39:12;;;;;;;22.52;17.40;;;;;;;;;;5054712;28;20122;-65
2021/05/29 06:41:57;;;;;;;27.67;18.17;;;;;;;;;;5054234;28;20045;-65
2021/05/29 06:44:43;;;;;;;27.33;18.20;;;;;;;;;;5054159;28;20045;-65
2021/05/29 06:47:28;;;;;;;27.05;18.23;;;;;;;;;;5054070;28;20072;-65
2021/05/29 06:50:13;;;;;;;23.10;18.65;;;;;;;;;;5053884;28;20056;-66
2021/05/29 06:53:00;;;;;;;24.48;19.95;;;;;;;;;;5054041;28;20051;-65
2021/05/29 06:58:51;;;;;;;26.13;18.98;;;;;;;;;;5052879;28;20048;-65
2021/05/29 07:01:36;;;;;;;21.45;18.38;;;;;;;;;;5053463;28;20041;-65
2021/05/29 07:04:22;;;;;;;22.45;17.25;;;;;;;;;;5053954;28;20126;-65
2021/05/29 07:07:07;;;;;;;26.67;19.13;;;;;;;;;;5053792;28;20049;-64
2021/05/29 07:09:53;;;;;;;24.27;18.45;;;;;;;;;;5053357;28;20487;-64
2021/05/29 07:12:38;;;;;;;23.77;18.95;;;;;;;;;;5053836;28;20054;-64
2021/05/29 07:15:32;;;;;;;22.23;17.48;;;;;;;;;;5053684;28;20053;-64
2021/05/29 07:18:20;;;;;;;20.17;16.42;;;;;;;;;;5053418;28;20052;-64
2021/05/29 07:21:05;;;;;;;23.50;17.63;;;;;;;;;;5052376;28;20045;-64
2021/05/29 07:23:50;;;;;;;21.70;16.92;;;;;;;;;;5053430;28;20049;-64
2021/05/29 07:26:36;;;;;;;22.15;15.85;;;;;;;;;;5053678;28;20041;-64
2021/05/29 07:29:21;;;;;;;20.52;16.73;;;;;;;;;;5053197;28;20048;-64
2021/05/29 07:32:07;;;;;;;19.02;16.23;;;;;;;;;;5053421;28;20044;-64
2021/05/29 07:34:52;;;;;;;19.45;16.73;;;;;;;;;;5053246;28;20049;-64
2021/05/29 07:37:37;;;;;;;19.92;14.75;;;;;;;;;;5053300;28;20060;-64
2021/05/29 07:40:23;;;;;;;22.83;14.35;;;;;;;;;;5051918;28;20494;-64
2021/05/29 07:43:08;;;;;;;19.42;13.07;;;;;;;;;;5053080;28;20048;-64
2021/05/29 07:45:53;;;;;;;18.77;13.50;;;;;;;;;;5053099;28;20052;-64
2021/05/29 07:48:39;;;;;;;16.65;11.25;;;;;;;;;;5052584;28;20055;-64
2021/05/29 07:51:24;;;;;;;18.77;12.73;;;;;;;;;;5050777;28;20048;-64
2021/05/29 07:54:11;;;;;;;17.67;13.93;;;;;;;;;;5051905;28;20057;-64
2021/05/29 07:56:56;;;;;;;17.90;12.15;;;;;;;;;;5049920;28;20049;-64
2021/05/29 07:59:43;;;;;;;16.83;11.77;;;;;;;;;;5050057;28;20127;-64
2021/05/29 08:02:29;;;;;;;18.20;13.55;;;;;;;;;;5051179;28;20048;-64
2021/05/29 08:05:20;;;;;;;15.57;11.18;;;;;;;;;;5049684;28;20470;-64
2021/05/29 08:08:05;;;;;;;15.68;10.70;;;;;;;;;;5052630;28;20049;-64
2021/05/29 08:10:53;;;;;;;14.18;10.90;;;;;;;;;;5050623;28;20053;-64
2021/05/29 08:13:38;;;;;;;17.80;10.57;;;;;;;;;;5049344;28;20052;-64
2021/05/29 08:16:23;;;;;;;13.32;10.50;;;;;;;;;;5049940;28;20045;-64
2021/05/29 08:19:11;;;;;;;12.27;9.95;;;;;;;;;;5050553;28;20517;-64
2021/05/29 08:21:56;;;;;;;17.35;11.63;;;;;;;;;;5051738;28;20052;-64
2021/05/29 08:24:42;;;;;;;17.65;11.77;;;;;;;;;;5049670;28;20041;-64
2021/05/29 08:27:27;;;;;;;13.63;9.27;;;;;;;;;;5050750;28;20065;-64
2021/05/29 08:30:13;;;;;;;13.05;9.70;;;;;;;;;;5052052;28;20056;-65
2021/05/29 08:32:58;;;;;;;13.05;9.70;;;;;;;;;;5052344;28;20072;-65
2021/05/29 08:35:43;;;;;;;13.40;9.77;;;;;;;;;;5052141;28;20059;-64
2021/05/29 08:38:28;;;;;;;13.85;9.88;;;;;;;;;;5052144;28;20130;-65
2021/05/29 08:41:14;;;;;;;13.02;9.98;;;;;;;;;;5051864;28;20056;-65
2021/05/29 08:43:59;;;;;;;12.57;10.25;;;;;;;;;;5052002;28;20037;-65
2021/05/29 08:46:45;;;;;;;13.80;10.95;;;;;;;;;;5051901;28;20542;-65
2021/05/29 08:49:30;;;;;;;14.32;10.32;;;;;;;;;;5051701;28;20114;-65
2021/05/29 08:52:15;;;;;;;10.80;8.90;;;;;;;;;;5051667;28;20387;-64
2021/05/29 08:55:01;;;;;;;12.63;8.60;;;;;;;;;;5051905;28;20080;-64
2021/05/29 08:57:48;;;;;;;14.60;10.40;;;;;;;;;;5051797;28;20427;-64
2021/05/29 09:00:34;;;;;;;13.98;10.05;;;;;;;;;;5051301;28;20510;-64
2021/05/29 09:03:19;;;;;;;14.13;10.65;;;;;;;;;;5051818;28;20477;-64
2021/05/29 09:06:05;;;;;;;13.27;10.80;;;;;;;;;;5051828;28;20049;-64
2021/05/29 09:08:52;;;;;;;15.23;11.32;;;;;;;;;;5050836;28;20075;-64
2021/05/29 09:11:44;;;;;;;15.35;12.32;;;;;;;;;;5050037;28;20045;-65
2021/05/29 09:14:30;;;;;;;14.80;11.18;;;;;;;;;;5051772;28;20052;-65
2021/05/29 09:17:22;;;;;;;13.35;10.65;;;;;;;;;;5051588;28;20056;-65
2021/05/29 09:20:09;;;;;;;14.63;10.83;;;;;;;;;;5051421;28;20052;-65
2021/05/29 09:22:55;;;;;;;13.60;9.20;;;;;;;;;;5051501;28;20045;-65
2021/05/29 09:25:40;;;;;;;14.95;10.25;;;;;;;;;;5051508;28;20045;-65
2021/05/29 09:28:25;;;;;;;13.20;9.85;;;;;;;;;;5050588;28;20128;-65
2021/05/29 09:31:14;;;;;;;14.07;10.85;;;;;;;;;;5051314;28;20049;-65
2021/05/29 09:34:00;;;;;;;14.65;10.98;;;;;;;;;;5051340;28;20052;-64
2021/05/29 09:36:46;;;;;;;11.63;8.90;;;;;;;;;;5051482;28;20042;-64
2021/05/29 09:39:31;;;;;;;10.40;8.23;;;;;;;;;;5050070;28;20045;-64
2021/05/29 09:42:17;;;;;;;11.70;9.10;;;;;;;;;;5051345;28;20492;-64
2021/05/29 09:45:26;;;;;;;12.00;9.02;;;;;;;;;;5051399;28;20486;-64
2021/05/29 09:48:17;;;;;;;12.43;8.35;;;;;;;;;;5051262;28;20056;-64
2021/05/29 09:51:03;;;;;;;11.23;8.18;;;;;;;;;;5050224;28;20052;-65
2021/05/29 09:53:49;;;;;;;13.10;9.18;;;;;;;;;;5051448;28;20648;-65
2021/05/29 09:56:40;;;;;;;8.68;5.97;;;;;;;;;;5051321;28;20130;-66
2021/05/29 09:59:26;;;;;;;8.23;7.03;;;;;;;;;;5050925;28;20400;-64
2021/05/29 10:02:11;;;;;;;13.23;7.90;;;;;;;;;;5051191;28;20533;-65
2021/05/29 10:04:57;;;;;;;11.60;8.10;;;;;;;;;;5054926;28;20049;-65
2021/05/29 10:07:42;;;;;;;11.50;5.97;;;;;;;;;;5054456;28;20429;-65
2021/05/29 10:10:28;;;;;;;7.25;5.63;;;;;;;;;;5053119;28;20410;-65
2021/05/29 10:13:13;;;;;;;8.10;5.68;;;;;;;;;;5051233;28;20052;-64
2021/05/29 10:15:59;;;;;;;10.02;7.35;;;;;;;;;;5049568;28;20590;-65
2021/05/29 10:18:44;;;;;;;9.98;6.25;;;;;;;;;;5052084;28;20116;-65
2021/05/29 10:21:36;;;;;;;11.85;7.40;;;;;;;;;;5053107;28;20118;-64
2021/05/29 10:24:22;;;;;;;11.88;6.97;;;;;;;;;;5054308;28;20048;-64
2021/05/29 10:27:08;;;;;;;14.13;7.50;;;;;;;;;;5054533;28;20052;-64
2021/05/29 10:29:53;;;;;;;9.65;5.85;;;;;;;;;;5053203;28;20048;-64
2021/05/29 10:32:38;;;;;;;14.82;6.43;;;;;;;;;;5054516;28;20135;-64
2021/05/29 10:35:31;;;;;;;8.57;5.80;;;;;;;;;;5054284;28;20041;-65
2021/05/29 10:38:16;;;;;;;8.10;4.95;;;;;;;;;;5053216;28;20044;-64
2021/05/29 10:41:02;;;;;;;8.27;4.97;;;;;;;;;;5054094;28;20164;-64
2021/05/29 10:43:47;;;;;;;6.15;4.95;;;;;;;;;;5054218;28;20052;-64
2021/05/29 10:46:32;;;;;;;11.70;5.70;;;;;;;;;;5053093;28;20048;-64
2021/05/29 10:49:32;;;;;;;8.05;4.82;;;;;;;;;;5054290;28;20431;-64
2021/05/29 10:52:34;;;;;;;6.93;4.90;;;;;;;;;;5053095;28;20510;-65
2021/05/29 10:55:20;;;;;;;9.25;4.85;;;;;;;;;;5053834;28;20048;-65
2021/05/29 10:58:06;;;;;;;11.48;4.72;;;;;;;;;;5053981;28;20409;-64
2021/05/29 11:00:51;;;;;;;8.68;4.57;;;;;;;;;;5053442;28;20564;-64
2021/05/29 11:03:36;;;;;;;11.82;4.80;;;;;;;;;;5053828;28;20047;-64
2021/05/29 11:06:32;;;;;;;8.15;4.65;;;;;;;;;;5052873;28;20107;-64
2021/05/29 11:09:18;;;;;;;9.77;4.53;;;;;;;;;;5053577;28;20541;-64
2021/05/29 11:12:04;;;;;;;5.40;4.25;;;;;;;;;;5053630;28;20056;-64
2021/05/29 11:14:51;;;;;;;8.50;4.57;;;;;;;;;;5053648;28;20200;-64
2021/05/29 11:17:36;;;;;;;8.18;4.57;;;;;;;;;;5053584;28;20498;-66
2021/05/29 11:20:22;;;;;;;6.43;4.25;;;;;;;;;;5053257;28;20060;-66
2021/05/29 11:23:07;;;;;;;7.50;4.30;;;;;;;;;;5053508;28;20559;-65
2021/05/29 11:25:53;;;;;;;7.50;4.03;;;;;;;;;;5053299;28;20094;-66
2021/05/29 11:28:38;;;;;;;5.40;3.92;;;;;;;;;;5053281;28;20099;-66
2021/05/29 11:31:23;;;;;;;6.93;4.00;;;;;;;;;;5052105;28;20048;-66
2021/05/29 11:34:08;;;;;;;9.50;4.00;;;;;;;;;;5053327;28;20049;-65
2021/05/29 11:36:55;;;;;;;7.28;4.05;;;;;;;;;;5052147;28;20514;-65
2021/05/29 11:39:50;;;;;;;6.68;3.88;;;;;;;;;;5052792;28;20047;-66
2021/05/29 11:42:49;;;;;;;7.30;4.35;;;;;;;;;;5053060;28;20495;-65
2021/05/29 11:45:34;;;;;;;7.25;4.28;;;;;;;;;;5053184;28;20147;-65
2021/05/29 11:48:19;;;;;;;8.68;3.80;;;;;;;;;;5052903;28;20052;-65
2021/05/29 11:51:09;;;;;;;7.78;4.72;;;;;;;;;;5051777;28;20098;-65
2021/05/29 11:54:14;;;;;;;6.55;3.85;;;;;;;;;;5052852;28;20037;-65
2021/05/29 11:56:59;;;;;;;7.63;4.00;;;;;;;;;;5052784;28;20128;-64
2021/05/29 11:59:45;;;;;;;5.60;3.38;;;;;;;;;;5080146;23;20027;-63
2021/05/29 12:02:30;;;;;;;7.97;3.97;;;;;;;;;;5097204;28;20463;-64
2021/05/29 12:05:17;;;;;;;6.65;4.38;;;;;;;;;;5097672;28;20067;-64
2021/05/29 12:08:06;;;;;;;6.13;3.53;;;;;;;;;;5097735;28;20120;-63
2021/05/29 12:10:52;;;;;;;8.30;4.55;;;;;;;;;;5095936;28;20505;-63
2021/05/29 12:13:37;;;;;;;6.35;3.67;;;;;;;;;;5096639;28;20072;-63
2021/05/29 12:16:27;;;;;;;6.88;4.07;;;;;;;;;;5098246;28;20048;-63
2021/05/29 12:19:30;;;;;;;6.68;4.18;;;;;;;;;;5097545;28;20048;-64
2021/05/29 12:22:19;;;;;;;7.03;4.32;;;;;;;;;;5098385;28;20143;-64
2021/05/29 12:25:09;;;;;;;5.90;3.95;;;;;;;;;;5095992;28;20054;-64
2021/05/29 12:27:54;;;;;;;8.00;4.80;;;;;;;;;;5096347;28;20047;-63
2021/05/29 12:30:39;;;;;;;4.10;3.15;;;;;;;;;;5080552;28;20044;-64
2021/05/29 12:33:25;;;;;;;4.95;2.83;;;;;;;;;;5093434;28;20490;-64
2021/05/29 12:36:12;;;;;;;5.85;3.78;;;;;;;;;;5093688;28;20052;-64
2021/05/29 12:39:02;;;;;;;6.32;3.63;;;;;;;;;;5096022;28;20405;-64
2021/05/29 12:41:48;;;;;;;4.50;3.05;;;;;;;;;;5094452;28;20083;-63
2021/05/29 12:44:45;;;;;;;5.30;3.55;;;;;;;;;;5096839;28;20501;-64
2021/05/29 12:47:31;;;;;;;5.57;3.92;;;;;;;;;;5094472;28;20036;-63
2021/05/29 12:50:17;;;;;;;5.43;4.20;;;;;;;;;;5095023;28;20051;-64
2021/05/29 12:53:11;;;;;;;4.78;3.25;;;;;;;;;;5093987;28;20046;-62
2021/05/29 12:56:08;;;;;;;5.15;3.80;;;;;;;;;;5093947;28;20044;-64
2021/05/29 12:59:08;;;;;;;8.07;4.05;;;;;;;;;;5092006;28;20486;-63
2021/05/29 13:08:16;;;;;;;7.57;4.03;;;;;;;;;;5091992;28;20131;-63
2021/05/29 13:11:01;;;;;;;6.28;3.65;;;;;;;;;;5090958;28;20043;-63
2021/05/29 13:14:06;;;;;;;5.93;3.53;;;;;;;;;;5092127;28;20044;-64
2021/05/29 13:16:58;;;;;;;5.55;3.95;;;;;;;;;;5091867;28;20063;-63
2021/05/29 13:19:53;;;;;;;6.22;4.32;;;;;;;;;;5091621;28;20620;-63
2021/05/29 13:22:39;;;;;;;6.18;4.57;;;;;;;;;;5091808;28;20040;-63
2021/05/29 13:25:24;;;;;;;5.38;3.38;;;;;;;;;;5091983;28;20094;-64
2021/05/29 13:28:11;;;;;;;6.25;4.07;;;;;;;;;;5090821;28;20119;-64
2021/05/29 13:30:56;;;;;;;6.80;4.43;;;;;;;;;;5091162;28;20044;-64
2021/05/29 13:33:41;;;;;;;8.48;4.55;;;;;;;;;;5091548;28;20401;-64
2021/05/29 13:36:27;;;;;;;7.00;3.90;;;;;;;;;;5091761;28;20048;-64
2021/05/29 13:39:12;;;;;;;6.80;4.82;;;;;;;;;;5094666;28;20043;-64
2021/05/29 13:41:59;;;;;;;5.72;3.75;;;;;;;;;;5095411;28;20051;-64
2021/05/29 13:44:45;;;;;;;6.97;4.07;;;;;;;;;;5095527;28;20126;-62
2021/05/29 13:47:30;;;;;;;7.18;4.57;;;;;;;;;;5094291;28;20528;-62
2021/05/29 13:50:15;;;;;;;5.70;3.67;;;;;;;;;;5094943;28;20661;-62
2021/05/29 13:53:00;;;;;;;7.93;4.40;;;;;;;;;;5095551;28;20082;-62
2021/05/29 13:55:46;;;;;;;5.47;4.13;;;;;;;;;;5095129;28;20063;-62
2021/05/29 13:58:31;;;;;;;6.00;4.03;;;;;;;;;;5095192;28;20517;-63
2021/05/29 14:01:17;;;;;;;5.45;3.97;;;;;;;;;;5094242;28;20521;-63
2021/05/29 14:04:02;;;;;;;6.47;4.10;;;;;;;;;;5092140;28;20046;-63
2021/05/29 14:06:48;;;;;;;6.03;4.15;;;;;;;;;;5092789;28;20051;-63
2021/05/29 14:09:33;;;;;;;4.97;3.50;;;;;;;;;;5093261;28;20040;-63
2021/05/29 14:12:18;;;;;;;4.97;3.35;;;;;;;;;;5095176;28;20056;-63
2021/05/29 14:15:04;;;;;;;4.20;2.90;;;;;;;;;;5094923;28;20516;-63
2021/05/29 14:17:52;;;;;;;4.63;3.03;;;;;;;;;;5093983;28;20043;-63
2021/05/29 14:20:37;;;;;;;4.03;2.85;;;;;;;;;;5093768;28;20059;-63
2021/05/29 14:23:22;;;;;;;3.97;2.83;;;;;;;;;;5094870;28;20147;-64
2021/05/29 14:26:07;;;;;;;3.97;2.90;;;;;;;;;;5094879;28;20448;-63
2021/05/29 14:28:53;;;;;;;3.88;2.78;;;;;;;;;;5094756;28;20058;-63
2021/05/29 14:31:38;;;;;;;8.25;3.17;;;;;;;;;;5094321;28;20040;-63
2021/05/29 14:34:23;;;;;;;4.90;2.90;;;;;;;;;;5094568;28;20051;-63
2021/05/29 14:37:09;;;;;;;4.22;2.85;;;;;;;;;;5094182;28;20040;-63
2021/05/29 14:39:55;;;;;;;4.90;3.13;;;;;;;;;;5092376;28;20047;-62
2021/05/29 14:42:41;;;;;;;3.97;2.55;;;;;;;;;;5092482;28;20037;-63
2021/05/29 14:45:26;;;;;;;5.35;3.30;;;;;;;;;;5090855;28;20043;-62
2021/05/29 14:48:11;;;;;;;4.38;3.30;;;;;;;;;;5092233;28;20046;-63
2021/05/29 14:51:16;;;;;;;4.65;3.13;;;;;;;;;;5094141;28;20064;-64
2021/05/29 14:54:01;;;;;;;4.22;3.13;;;;;;;;;;5094306;28;20040;-63
2021/05/29 14:56:46;;;;;;;3.88;3.22;;;;;;;;;;5094388;28;20118;-62
2021/05/29 14:59:31;;;;;;;4.50;3.20;;;;;;;;;;5093740;28;20072;-63
2021/05/29 15:02:17;;;;;;;4.55;3.38;;;;;;;;;;5094149;28;20540;-63
2021/05/29 15:05:03;;;;;;;4.13;3.13;;;;;;;;;;5094079;28;20044;-63
2021/05/29 15:07:48;;;;;;;4.45;2.80;;;;;;;;;;5094211;28;20040;-63
2021/05/29 15:10:33;;;;;;;5.40;3.30;;;;;;;;;;5093649;28;20051;-62
2021/05/29 15:13:19;;;;;;;3.95;3.05;;;;;;;;;;5093842;28;20166;-62
2021/05/29 15:16:04;;;;;;;5.10;3.65;;;;;;;;;;5094100;28;20471;-62
2021/05/29 15:18:50;;;;;;;4.18;3.55;;;;;;;;;;5093765;28;20036;-61
2021/05/29 15:21:35;;;;;;;4.95;3.08;;;;;;;;;;5093469;28;20078;-62
2021/05/29 15:24:22;;;;;;;5.85;3.63;;;;;;;;;;5092482;28;20461;-62
2021/05/29 15:27:07;;;;;;;6.13;3.08;;;;;;;;;;5093786;28;20557;-62
2021/05/29 15:29:54;;;;;;;6.65;3.38;;;;;;;;;;5093317;28;20578;-64
2021/05/29 15:32:40;;;;;;;4.78;2.65;;;;;;;;;;5097670;28;20056;-64
2021/05/29 15:35:25;;;;;;;7.18;3.83;;;;;;;;;;5097249;28;20044;-63
2021/05/29 15:38:11;;;;;;;4.93;3.50;;;;;;;;;;5096820;28;20044;-64
2021/05/29 15:40:57;;;;;;;4.28;3.72;;;;;;;;;;5097879;28;20444;-63
2021/05/29 15:43:42;;;;;;;5.15;3.22;;;;;;;;;;5098324;28;20040;-64
2021/05/29 15:46:28;;;;;;;4.32;3.00;;;;;;;;;;5096056;28;20139;-63
2021/05/29 15:49:13;;;;;;;4.28;2.80;;;;;;;;;;5097215;28;20055;-64
2021/05/29 15:51:59;;;;;;;6.05;3.40;;;;;;;;;;5093738;28;20052;-63
2021/05/29 15:54:44;;;;;;;3.47;2.70;;;;;;;;;;5093165;28;20448;-63
2021/05/29 15:57:29;;;;;;;4.00;2.78;;;;;;;;;;5092947;28;20052;-63
2021/05/29 16:00:15;;;;;;;3.03;2.70;;;;;;;;;;5091725;28;20456;-63
2021/05/29 16:03:00;;;;;;;3.97;2.65;;;;;;;;;;5093073;28;20123;-64
2021/05/29 16:05:45;;;;;;;3.75;2.90;;;;;;;;;;5092852;28;20044;-64
2021/05/29 16:08:31;;;;;;;4.88;3.15;;;;;;;;;;5094738;28;20491;-64
2021/05/29 16:11:16;;;;;;;4.22;2.45;;;;;;;;;;5096438;28;20562;-63
2021/05/29 16:14:02;;;;;;;3.30;2.63;;;;;;;;;;5097044;28;20044;-65
2021/05/29 16:16:47;;;;;;;4.68;2.35;;;;;;;;;;5097945;28;20520;-64
2021/05/29 16:19:33;;;;;;;2.60;2.40;;;;;;;;;;5098070;28;20040;-64
2021/05/29 16:22:18;;;;;;;3.38;2.63;;;;;;;;;;5097725;28;20501;-64
2021/05/29 16:25:04;;;;;;;5.05;2.80;;;;;;;;;;5098323;28;20051;-65
2021/05/29 16:27:49;;;;;;;4.07;2.75;;;;;;;;;;5096356;28;20047;-64
2021/05/29 16:30:34;;;;;;;3.63;2.55;;;;;;;;;;5096207;28;20554;-64
2021/05/29 16:33:19;;;;;;;5.28;2.83;;;;;;;;;;5097645;28;20048;-64
2021/05/29 16:36:07;;;;;;;3.25;2.72;;;;;;;;;;5097896;28;20047;-64